KCLS

Chehalis-Centralia Airport

Chehalis, Washington, USA
METAR KCLS 230455Z AUTO 00000KT M1/4SM FG 07/07 A2988 RMK AO2
Observed Flight Rules
Oct-23 @ 04:55 UTC (23 minutes ago)
Visibility Conditions
1/4 miles
  • Fog
Temperatures Readings
Current 7°C / 45°F
Dewpoint 7°C / 45°F
Humidity 100%
Altimeter 29.88" Hg
Pressure 1012 hPa
Elevation 54
METAR KCLS 230455Z AUTO 00000KT M1/4SM FG 07/07 A2988 RMK AO2
Observed Flight Rules
Oct-23 @ 04:55 UTC
(23 minutes ago)
Conditions
  • Fog
Temperature Dewpoint
7°C / 45°F 7°C / 45°F
Humidity Altimeter Pressure
100% 29.88" Hg 1012 hPa